createdAt,value
2018-04-10T00:01:18.078Z,4.67
2018-04-10T00:03:50.631Z,3.80
2018-04-10T00:06:23.774Z,5.13
2018-04-10T00:08:56.407Z,5.03
2018-04-10T00:11:28.910Z,7.60
2018-04-10T00:14:02.109Z,7.80
2018-04-10T00:16:35.124Z,7.40
2018-04-10T00:19:08.406Z,6.97
2018-04-10T00:21:41.086Z,10.23
2018-04-10T00:24:13.554Z,5.60
2018-04-10T00:26:45.965Z,5.57
2018-04-10T00:29:25.437Z,7.47
2018-04-10T00:31:58.036Z,6.60
2018-04-10T00:34:31.251Z,8.63
2018-04-10T00:37:04.815Z,4.43
2018-04-10T00:39:37.453Z,7.23
2018-04-10T00:42:09.908Z,10.77
2018-04-10T00:44:42.306Z,6.23
2018-04-10T00:47:14.788Z,11.83
2018-04-10T00:49:47.213Z,4.43
2018-04-10T00:52:19.783Z,3.63
2018-04-10T00:54:52.257Z,5.90
2018-04-10T00:57:24.811Z,4.63
2018-04-10T00:59:57.169Z,7.27
2018-04-10T01:02:29.916Z,4.83
2018-04-10T01:05:02.290Z,4.67
2018-04-10T01:07:34.706Z,5.73
2018-04-10T01:10:07.071Z,6.67
2018-04-10T01:12:39.518Z,5.37
2018-04-10T01:15:12.010Z,4.77
2018-04-10T01:17:44.482Z,4.40
2018-04-10T01:20:16.965Z,4.43
2018-04-10T01:22:50.290Z,4.83
2018-04-10T01:25:23.617Z,5.77
2018-04-10T01:27:56.362Z,7.80
2018-04-10T01:30:28.772Z,7.80
2018-04-10T01:33:01.209Z,3.60
2018-04-10T01:35:34.356Z,4.77
2018-04-10T01:38:07.160Z,12.73
2018-04-10T01:40:40.411Z,8.17
2018-04-10T01:43:12.983Z,4.20
2018-04-10T01:45:45.666Z,6.23
2018-04-10T01:48:18.858Z,4.83
2018-04-10T01:50:51.600Z,5.30
2018-04-10T01:53:24.942Z,5.53
2018-04-10T01:55:57.416Z,8.23
2018-04-10T01:58:30.142Z,3.90
2018-04-10T02:01:03.028Z,5.13
2018-04-10T02:03:36.301Z,5.00
2018-04-10T02:06:08.862Z,5.23
2018-04-10T02:08:41.492Z,4.03
2018-04-10T02:29:43.353Z,3.90
2018-04-10T02:32:16.161Z,3.67
2018-04-10T02:34:49.425Z,3.30
2018-04-10T02:37:21.866Z,4.13
2018-04-10T02:39:55.307Z,6.07
2018-04-10T02:42:27.914Z,4.43
2018-04-10T02:45:01.119Z,4.40
2018-04-10T02:47:33.707Z,4.97
2018-04-10T02:50:07.078Z,5.23
2018-04-10T02:52:39.609Z,7.73
2018-04-10T02:55:12.154Z,6.40
2018-04-10T02:57:45.335Z,9.50
2018-04-10T03:00:18.791Z,4.20
2018-04-10T03:02:51.494Z,5.40
2018-04-10T03:05:23.984Z,5.43
2018-04-10T03:07:58.099Z,4.10
2018-04-10T03:10:30.821Z,4.37
2018-04-10T03:13:04.060Z,3.90
2018-04-10T03:15:36.866Z,3.23
2018-04-10T03:18:09.468Z,4.97
2018-04-10T03:20:42.820Z,4.13
2018-04-10T03:23:16.029Z,4.97
2018-04-10T03:25:48.743Z,7.03
2018-04-10T03:28:22.277Z,6.47
2018-04-10T03:30:54.749Z,5.60
2018-04-10T03:33:28.166Z,5.30
2018-04-10T03:36:00.765Z,3.73
2018-04-10T03:38:33.956Z,4.13
2018-04-10T03:41:06.627Z,5.80
2018-04-10T03:43:39.784Z,6.00
2018-04-10T03:46:12.628Z,4.33
2018-04-10T03:48:45.951Z,6.00
2018-04-10T03:51:18.370Z,5.80
2018-04-10T03:53:52.469Z,4.17
2018-04-10T03:56:25.199Z,6.00
2018-04-10T03:58:58.553Z,4.13
2018-04-10T04:01:31.681Z,3.93
2018-04-10T04:04:05.089Z,6.00
2018-04-10T04:06:38.000Z,6.33
2018-04-10T04:09:10.393Z,6.33
2018-04-10T04:11:42.836Z,5.10
2018-04-10T04:14:15.344Z,5.40
2018-04-10T04:17:06.330Z,4.10
2018-04-10T04:19:58.616Z,9.20
2018-04-10T04:22:37.381Z,6.87
2018-04-10T04:25:09.937Z,8.00
2018-04-10T04:27:42.450Z,7.63
2018-04-10T04:30:15.118Z,6.73
2018-04-10T04:32:49.182Z,3.90
2018-04-10T04:35:22.112Z,7.43
2018-04-10T04:37:55.325Z,5.10
2018-04-10T04:40:27.901Z,6.20
2018-04-10T04:43:00.511Z,6.23
2018-04-10T04:45:35.335Z,6.03
2018-04-10T04:48:08.281Z,6.10
2018-04-10T04:50:40.712Z,4.50
2018-04-10T04:53:13.960Z,7.03
2018-04-10T04:55:47.442Z,5.27
2018-04-10T04:58:20.330Z,11.37
2018-04-10T05:00:54.544Z,6.47
2018-04-10T05:03:28.046Z,11.57
2018-04-10T05:06:00.644Z,5.43
2018-04-10T05:08:33.190Z,4.40
2018-04-10T05:11:05.589Z,4.37
2018-04-10T05:13:38.185Z,4.33
2018-04-10T05:16:10.491Z,6.33
2018-04-10T05:18:50.029Z,4.80
2018-04-10T05:21:23.416Z,8.40
2018-04-10T05:23:56.231Z,6.00
2018-04-10T05:26:28.790Z,7.30
2018-04-10T05:29:02.176Z,4.40
2018-04-10T05:31:34.670Z,5.00
2018-04-10T05:34:07.124Z,4.67
2018-04-10T05:36:39.862Z,7.17
2018-04-10T05:39:13.909Z,7.47
2018-04-10T05:41:47.233Z,7.03
2018-04-10T05:44:20.056Z,6.10
2018-04-10T05:46:52.614Z,8.10
2018-04-10T05:49:25.130Z,7.90
2018-04-10T05:51:57.656Z,6.47
2018-04-10T05:54:30.132Z,8.07
2018-04-10T05:57:04.291Z,5.03
2018-04-10T05:59:37.025Z,10.43
2018-04-10T06:02:09.499Z,6.70
2018-04-10T06:04:42.794Z,11.00
2018-04-10T06:07:15.282Z,6.50
2018-04-10T06:09:47.755Z,9.23
2018-04-10T06:12:20.984Z,9.93
2018-04-10T06:14:53.684Z,8.30
2018-04-10T06:17:26.068Z,7.37
2018-04-10T06:19:58.781Z,10.70
2018-04-10T06:22:32.001Z,10.40
2018-04-10T06:25:05.021Z,15.23
2018-04-10T06:27:38.072Z,18.00
2018-04-10T06:30:10.588Z,8.40
2018-04-10T06:32:42.901Z,11.97
2018-04-10T06:35:16.134Z,14.40
2018-04-10T06:37:49.086Z,20.03
2018-04-10T06:40:22.324Z,15.63
2018-04-10T06:42:55.077Z,14.37
2018-04-10T06:45:27.649Z,15.73
2018-04-10T06:48:00.022Z,15.07
2018-04-10T06:50:32.700Z,19.33
2018-04-10T06:53:05.080Z,15.50
2018-04-10T06:55:38.389Z,13.87
2018-04-10T06:58:11.356Z,16.80
2018-04-10T07:00:43.895Z,17.80
2018-04-10T07:03:16.436Z,19.60
2018-04-10T07:05:49.132Z,18.13
2018-04-10T07:08:21.539Z,12.23
2018-04-10T07:10:54.053Z,34.50
2018-04-10T07:13:28.183Z,22.17
2018-04-10T07:16:02.069Z,20.20
2018-04-10T07:18:34.754Z,27.80
2018-04-10T07:21:07.872Z,18.17
2018-04-10T07:23:40.430Z,17.90
2018-04-10T07:26:13.603Z,23.70
2018-04-10T07:28:46.171Z,18.20
2018-04-10T07:31:18.746Z,20.57
2018-04-10T07:33:51.268Z,21.63
2018-04-10T07:36:23.606Z,24.13
2018-04-10T07:38:56.086Z,22.30
2018-04-10T07:41:28.562Z,26.57
2018-04-10T07:44:01.026Z,27.63
2018-04-10T07:46:33.626Z,26.97
2018-04-10T07:49:06.117Z,36.40
2018-04-10T07:51:39.390Z,21.70
2018-04-10T07:54:12.067Z,23.67
2018-04-10T07:56:44.540Z,22.07
2018-04-10T07:59:17.681Z,35.57
2018-04-10T08:01:50.505Z,21.77
2018-04-10T08:04:22.851Z,22.70
2018-04-10T08:06:55.341Z,23.80
2018-04-10T08:09:27.902Z,22.93
2018-04-10T08:12:01.890Z,29.43
2018-04-10T08:14:35.493Z,27.50
2018-04-10T08:17:08.223Z,26.10
2018-04-10T08:19:40.873Z,18.43
2018-04-10T08:22:13.577Z,25.43
2018-04-10T08:24:46.059Z,24.07
2018-04-10T08:27:19.420Z,25.50
2018-04-10T08:29:52.912Z,25.03
2018-04-10T08:32:25.757Z,26.63
2018-04-10T08:34:59.172Z,28.03
2018-04-10T08:37:31.637Z,23.00
2018-04-10T08:40:04.989Z,20.13
2018-04-10T08:42:37.537Z,25.17
2018-04-10T08:45:10.729Z,28.80
2018-04-10T08:47:44.036Z,17.33
2018-04-10T08:50:16.729Z,26.63
2018-04-10T08:52:49.411Z,25.10
2018-04-10T08:55:22.685Z,30.67
2018-04-10T08:57:55.484Z,30.63
2018-04-10T09:00:28.816Z,17.77
2018-04-10T09:03:01.202Z,17.50
2018-04-10T09:05:33.611Z,26.60
2018-04-10T09:08:06.157Z,16.07
2018-04-10T09:10:38.867Z,18.87
2018-04-10T09:13:12.245Z,20.77
2018-04-10T09:15:45.531Z,17.93
2018-04-10T09:18:18.913Z,20.33
2018-04-10T09:20:52.237Z,16.37
2018-04-10T09:23:24.937Z,16.63
2018-04-10T09:25:58.387Z,25.10
2018-04-10T09:28:31.153Z,18.33
2018-04-10T09:31:03.687Z,25.30
2018-04-10T09:33:36.817Z,17.17
2018-04-10T09:36:09.557Z,16.30
2018-04-10T09:38:42.821Z,20.47
2018-04-10T09:41:15.261Z,14.90
2018-04-10T09:43:47.786Z,15.63
2018-04-10T09:46:20.100Z,17.50
2018-04-10T09:48:53.256Z,18.53
2018-04-10T09:51:25.894Z,17.80
2018-04-10T09:53:58.508Z,14.40
2018-04-10T09:56:31.829Z,18.90
2018-04-10T09:59:05.068Z,16.87
2018-04-10T10:01:37.635Z,23.37
2018-04-10T10:04:10.085Z,16.50
2018-04-10T10:06:42.534Z,15.30
2018-04-10T10:09:15.000Z,14.67
2018-04-10T10:11:47.481Z,19.53
2018-04-10T10:14:19.958Z,14.23
2018-04-10T10:16:53.169Z,15.00
2018-04-10T10:19:25.887Z,16.73
2018-04-10T10:21:59.556Z,17.83
2018-04-10T10:24:32.714Z,19.70
2018-04-10T10:27:05.359Z,22.73
2018-04-10T10:29:37.844Z,13.73
2018-04-10T10:32:11.008Z,18.27
2018-04-10T10:34:43.666Z,14.37
2018-04-10T10:37:16.993Z,11.43
2018-04-10T10:39:50.512Z,21.23
2018-04-10T10:42:23.225Z,19.00
2018-04-10T10:44:55.670Z,15.10
2018-04-10T10:47:28.808Z,12.57
2018-04-10T10:50:01.557Z,11.70
2018-04-10T10:52:34.699Z,19.23
2018-04-10T10:55:07.442Z,19.70
2018-04-10T10:57:41.719Z,18.23
2018-04-10T11:00:14.295Z,14.80
2018-04-10T11:02:46.704Z,11.07
2018-04-10T11:05:19.990Z,16.60
2018-04-10T11:07:52.592Z,19.27
2018-04-10T11:10:25.024Z,17.30
2018-04-10T11:12:57.594Z,14.83
2018-04-10T11:15:30.018Z,15.93
2018-04-10T11:18:04.133Z,17.13
2018-04-10T11:20:37.714Z,12.53
2018-04-10T11:23:10.422Z,14.90
2018-04-10T11:25:43.672Z,15.40
2018-04-10T11:28:16.358Z,12.90
2018-04-10T11:30:48.809Z,32.03
2018-04-10T11:33:22.097Z,30.20
2018-04-10T11:35:55.615Z,25.53
2018-04-10T11:38:28.471Z,33.83
2018-04-10T11:41:00.866Z,19.60
2018-04-10T11:43:33.354Z,21.27
2018-04-10T11:46:06.731Z,24.17
2018-04-10T11:48:40.196Z,26.40
2018-04-10T11:51:13.074Z,25.37
2018-04-10T11:53:46.335Z,31.97
2018-04-10T11:56:19.199Z,19.50
2018-04-10T11:58:51.657Z,26.63
2018-04-10T12:01:24.057Z,24.13
2018-04-10T12:03:56.683Z,24.10
2018-04-10T12:06:29.314Z,22.73
2018-04-10T12:09:03.349Z,22.13
2018-04-10T12:11:36.843Z,23.93
2018-04-10T12:14:09.486Z,27.57
2018-04-10T12:16:42.053Z,35.50
2018-04-10T12:19:16.168Z,25.53
2018-04-10T12:21:48.827Z,25.03
2018-04-10T12:24:22.104Z,26.50
2018-04-10T12:26:55.437Z,32.63
2018-04-10T12:29:28.119Z,29.87
2018-04-10T12:32:00.634Z,23.93
2018-04-10T12:34:33.011Z,32.63
2018-04-10T12:37:07.227Z,30.17
2018-04-10T12:39:39.869Z,29.27
2018-04-10T12:42:12.226Z,24.90
2018-04-10T12:44:44.685Z,22.80
2018-04-10T12:47:17.365Z,33.80
2018-04-10T12:49:49.844Z,23.17
2018-04-10T12:52:22.312Z,29.97
2018-04-10T12:54:54.886Z,31.73
2018-04-10T12:57:28.902Z,28.03
2018-04-10T13:00:01.622Z,31.93
2018-04-10T13:02:35.015Z,25.87
2018-04-10T13:05:07.546Z,25.73
2018-04-10T13:07:40.017Z,20.93
2018-04-10T13:10:12.513Z,13.57
2018-04-10T13:12:45.108Z,22.20
2018-04-10T13:15:17.693Z,22.90
2018-04-10T13:17:50.261Z,16.10
2018-04-10T13:20:22.680Z,14.70
2018-04-10T13:22:55.244Z,19.33
2018-04-10T13:25:27.869Z,12.67
2018-04-10T13:28:01.040Z,21.53
2018-04-10T13:30:34.206Z,14.30
2018-04-10T13:33:06.985Z,15.70
2018-04-10T13:35:40.312Z,12.90
2018-04-10T13:38:12.794Z,14.37
2018-04-10T13:40:46.160Z,13.07
2018-04-10T13:43:18.661Z,11.83
2018-04-10T13:45:51.104Z,16.13
2018-04-10T13:48:23.605Z,11.63
2018-04-10T13:50:56.148Z,14.23
2018-04-10T13:53:30.289Z,7.03
2018-04-10T13:56:03.317Z,9.83
2018-04-10T13:58:36.673Z,10.67
2018-04-10T14:01:10.001Z,12.10
2018-04-10T14:03:42.617Z,10.10
2018-04-10T14:06:16.635Z,6.80
2018-04-10T14:08:50.052Z,5.20
2018-04-10T14:11:22.760Z,11.40
2018-04-10T14:13:55.342Z,3.30
2018-04-10T14:16:27.843Z,3.27
2018-04-10T14:19:00.268Z,3.27
2018-04-10T14:21:32.936Z,7.23
2018-04-10T14:24:05.649Z,2.37
2018-04-10T14:26:38.919Z,4.97
2018-04-10T14:29:11.338Z,8.10
2018-04-10T14:31:43.799Z,2.97
2018-04-10T14:34:16.307Z,4.17
2018-04-10T14:36:49.536Z,2.10
2018-04-10T14:39:22.357Z,3.33
2018-04-10T14:41:54.752Z,3.67
2018-04-10T14:44:27.393Z,4.07
2018-04-10T14:46:59.825Z,5.50
2018-04-10T14:49:32.224Z,6.00
2018-04-10T14:52:04.816Z,8.83
2018-04-10T14:54:38.150Z,3.97
2018-04-10T14:57:11.588Z,8.83
2018-04-10T14:59:44.231Z,4.37
2018-04-10T15:02:17.463Z,2.47
2018-04-10T15:04:49.961Z,4.80
2018-04-10T15:07:23.048Z,2.67
2018-04-10T15:09:55.685Z,4.90
2018-04-10T15:12:28.847Z,3.13
2018-04-10T15:15:01.573Z,6.73
2018-04-10T15:17:34.158Z,9.93
2018-04-10T15:20:07.061Z,2.73
2018-04-10T15:22:40.197Z,3.40
2018-04-10T15:25:14.390Z,6.27
2018-04-10T15:27:47.916Z,9.33
2018-04-10T15:30:20.568Z,3.80
2018-04-10T15:32:53.078Z,6.57
2018-04-10T15:35:25.616Z,4.30
2018-04-10T15:37:58.070Z,6.67
2018-04-10T15:40:30.583Z,13.70
2018-04-10T15:43:03.896Z,3.87
2018-04-10T15:45:38.025Z,2.90
2018-04-10T15:48:10.753Z,2.87
2018-04-10T15:50:43.188Z,4.40
2018-04-10T15:53:15.999Z,9.10
2018-04-10T15:55:49.184Z,3.80
2018-04-10T15:58:22.400Z,3.20
2018-04-10T16:00:54.952Z,14.67
2018-04-10T16:03:28.336Z,2.40
2018-04-10T16:06:00.756Z,6.80
2018-04-10T16:08:34.104Z,5.53
2018-04-10T16:11:06.657Z,3.00
2018-04-10T16:13:39.966Z,3.00
2018-04-10T16:16:12.317Z,8.10
2018-04-10T16:18:44.704Z,3.83
2018-04-10T16:21:18.044Z,6.40
2018-04-10T16:23:51.131Z,12.27
2018-04-10T16:26:23.838Z,5.60
2018-04-10T16:28:56.224Z,7.80
2018-04-10T16:31:28.857Z,4.63
2018-04-10T16:34:01.451Z,4.27
2018-04-10T16:36:33.834Z,6.57
2018-04-10T16:39:06.442Z,5.20
2018-04-10T16:41:38.992Z,7.37
2018-04-10T16:44:12.296Z,5.53
2018-04-10T16:46:45.719Z,9.70
2018-04-10T16:49:18.580Z,5.77
2018-04-10T16:51:51.882Z,5.97
2018-04-10T16:54:24.502Z,5.97
2018-04-10T16:56:56.977Z,6.77
2018-04-10T16:59:29.459Z,7.70
2018-04-10T17:02:01.975Z,7.67
2018-04-10T17:04:35.363Z,3.83
2018-04-10T17:07:08.716Z,4.20
2018-04-10T17:09:41.377Z,8.10
2018-04-10T17:12:13.851Z,6.80
2018-04-10T17:14:46.305Z,3.23
2018-04-10T17:17:19.638Z,6.30
2018-04-10T17:19:52.100Z,4.40
2018-04-10T17:22:25.314Z,2.80
2018-04-10T17:24:58.691Z,3.40
2018-04-10T17:27:31.257Z,8.77
2018-04-10T17:30:03.739Z,3.83
2018-04-10T17:32:37.116Z,4.23
2018-04-10T17:35:09.753Z,3.93
2018-04-10T17:37:43.556Z,6.27
2018-04-10T17:40:16.867Z,3.70
2018-04-10T17:42:50.198Z,7.70
2018-04-10T17:45:23.539Z,7.17
2018-04-10T17:47:55.979Z,6.37
2018-04-10T17:50:29.279Z,4.27
2018-04-10T17:53:02.028Z,7.83
2018-04-10T17:55:34.608Z,6.43
2018-04-10T17:58:07.322Z,5.00
2018-04-10T18:00:39.730Z,6.27
2018-04-10T18:03:12.515Z,6.30
2018-04-10T18:05:46.594Z,6.10
2018-04-10T18:08:20.114Z,3.30
2018-04-10T18:10:52.973Z,6.60
2018-04-10T18:13:26.117Z,5.67
2018-04-10T18:15:58.665Z,6.80
2018-04-10T18:18:31.165Z,7.00
2018-04-10T18:21:03.709Z,5.83
2018-04-10T18:23:36.197Z,4.43
2018-04-10T18:26:09.495Z,5.43
2018-04-10T18:28:42.042Z,6.73
2018-04-10T18:31:15.282Z,5.10
2018-04-10T18:33:49.385Z,5.40
2018-04-10T18:36:23.082Z,7.57
2018-04-10T18:38:57.329Z,4.23
2018-04-10T18:41:31.401Z,8.53
2018-04-10T18:44:06.776Z,3.50
2018-04-10T18:46:42.312Z,5.30
2018-04-10T18:49:16.988Z,6.27
2018-04-10T18:51:51.259Z,6.00
2018-04-10T18:54:26.463Z,4.10
2018-04-10T18:57:01.090Z,5.87
2018-04-10T18:59:35.723Z,5.30
2018-04-10T19:02:10.202Z,6.47
2018-04-10T19:04:45.227Z,5.13
2018-04-10T19:07:20.040Z,5.17
2018-04-10T19:09:54.905Z,3.87
2018-04-10T19:12:29.249Z,5.77
2018-04-10T19:15:03.860Z,11.60
2018-04-10T19:17:38.206Z,10.13
2018-04-10T19:20:12.707Z,4.50
2018-04-10T19:22:46.839Z,7.73
2018-04-10T19:25:21.301Z,7.80
2018-04-10T19:27:55.767Z,11.00
2018-04-10T19:30:30.167Z,5.53
2018-04-10T19:33:05.017Z,6.67
2018-04-10T19:35:39.848Z,7.70
2018-04-10T19:38:14.044Z,5.80
2018-04-10T19:40:49.443Z,5.13
2018-04-10T19:43:23.832Z,5.47
2018-04-10T19:45:58.734Z,4.67
2018-04-10T19:48:40.602Z,5.67
2018-04-10T19:51:16.214Z,6.77
2018-04-10T19:53:50.649Z,8.03
2018-04-10T19:56:25.167Z,6.33
2018-04-10T19:59:00.210Z,6.83
2018-04-10T20:01:35.602Z,4.30
2018-04-10T20:04:11.039Z,4.97
2018-04-10T20:06:45.708Z,3.30
2018-04-10T20:09:20.134Z,7.70
2018-04-10T20:11:54.652Z,3.57
2018-04-10T20:14:29.735Z,9.63
2018-04-10T20:17:03.809Z,3.97
2018-04-10T20:19:38.039Z,4.07
2018-04-10T20:22:12.574Z,4.13
2018-04-10T20:24:46.713Z,4.33
2018-04-10T20:27:20.012Z,4.80
2018-04-10T20:29:53.120Z,2.47
2018-04-10T20:32:27.038Z,6.60
2018-04-10T20:34:59.671Z,3.30
2018-04-10T20:37:33.284Z,3.30
2018-04-10T20:40:07.106Z,7.47
2018-04-10T20:42:39.881Z,7.70
2018-04-10T20:45:13.374Z,3.70
2018-04-10T20:47:46.724Z,7.10
2018-04-10T20:50:20.908Z,5.37
2018-04-10T20:52:54.277Z,5.93
2018-04-10T20:55:27.084Z,8.93
2018-04-10T20:58:00.302Z,5.63
2018-04-10T21:00:33.834Z,10.47
2018-04-10T21:03:07.781Z,5.73
2018-04-10T21:05:41.140Z,6.13
2018-04-10T21:08:13.917Z,6.10
2018-04-10T21:10:46.314Z,7.97
2018-04-10T21:13:19.494Z,11.47
2018-04-10T21:15:52.174Z,10.13
2018-04-10T21:18:24.637Z,9.60
2018-04-10T21:20:58.000Z,7.70
2018-04-10T21:23:31.578Z,6.90
2018-04-10T21:26:04.381Z,7.30
2018-04-10T21:28:36.776Z,6.50
2018-04-10T21:31:09.268Z,6.80
2018-04-10T21:33:43.311Z,9.70
2018-04-10T21:36:16.034Z,9.30
2018-04-10T21:38:49.454Z,8.07
2018-04-10T21:41:22.173Z,7.17
2018-04-10T21:43:55.493Z,12.23
2018-04-10T21:46:28.929Z,10.73
2018-04-10T21:49:01.375Z,8.53
2018-04-10T21:51:35.484Z,8.27
2018-04-10T21:54:08.288Z,9.00
2018-04-10T21:56:41.500Z,6.77
2018-04-10T21:59:14.619Z,9.43
2018-04-10T22:01:47.177Z,8.33
2018-04-10T22:13:34.474Z,8.83
2018-04-10T22:16:09.031Z,7.27
2018-04-10T22:18:42.153Z,10.00
2018-04-10T22:21:16.057Z,10.73
2018-04-10T22:23:49.901Z,7.40
2018-04-10T22:26:23.119Z,6.73
2018-04-10T22:28:56.224Z,9.07
2018-04-10T22:31:29.600Z,11.00
2018-04-10T22:34:02.078Z,6.23
2018-04-10T22:36:34.559Z,8.10
2018-04-10T22:39:07.975Z,8.43
2018-04-10T22:41:40.736Z,8.60
2018-04-10T22:44:13.255Z,8.60
2018-04-10T22:46:46.426Z,7.63
2018-04-10T22:49:19.124Z,7.63
2018-04-10T22:51:52.456Z,10.00
2018-04-10T22:54:25.935Z,9.53
2018-04-10T22:56:59.909Z,10.33
2018-04-10T22:59:32.700Z,9.30
2018-04-10T23:02:05.237Z,9.17
2018-04-10T23:04:37.950Z,9.27
2018-04-10T23:07:10.301Z,7.37
2018-04-10T23:09:43.558Z,10.10
2018-04-10T23:12:16.258Z,10.80
2018-04-10T23:14:48.740Z,9.30
2018-04-10T23:17:21.931Z,8.77
2018-04-10T23:19:54.511Z,8.70
2018-04-10T23:22:28.530Z,12.80
2018-04-10T23:25:01.299Z,9.90
2018-04-10T23:27:33.852Z,14.17
2018-04-10T23:30:06.289Z,9.70
2018-04-10T23:32:38.849Z,12.43
2018-04-10T23:35:12.051Z,12.03
2018-04-10T23:37:45.643Z,9.70
2018-04-10T23:40:18.446Z,10.73
2018-04-10T23:42:51.746Z,13.47
2018-04-10T23:45:24.346Z,11.27
2018-04-10T23:47:58.412Z,15.43
2018-04-10T23:50:31.367Z,13.27
2018-04-10T23:53:04.767Z,10.83
2018-04-10T23:55:37.424Z,14.87
2018-04-10T23:58:09.873Z,12.53
